MSC Rochelle — D5GE9 — position and weather

sailwx.info

Track history (hours):
 
Tides and Currents Weather Stations Pressure Air Temp Water Temp Dewpoint Dewpoint Depression Visibility Wind Speed Wind Dir Waves Ship Positions

MSC Rochelle

Last reported at 2018-Jun-24 07:00 UTC. Time now 2018-Jun-24 07:15 UTC.
Position N 43°25' E 004°50'.

Length 293 m; draft 9.1 m.

Type: Ship (hazmat cat A). MMSI: 636016476.

Date/timePositionNaut miles runAvg speedWind from/ knotsBaromVisibWave heightAir tempDewpointWater temp
2018-Jun-24 07:00N 43°25' E 004°50'0 0.0
2018-Jun-24 06:30N 43°25' E 004°50'0 0.0
2018-Jun-24 06:00N 43°25' E 004°50'0 0.0
2018-Jun-24 05:30N 43°25' E 004°50'0 0.0
2018-Jun-24 05:00N 43°25' E 004°50'0 0.0
2018-Jun-24 04:30N 43°25' E 004°50'0 0.0
2018-Jun-24 04:00N 43°25' E 004°50'0 0.0
2018-Jun-24 03:30N 43°25' E 004°50'1 1.2
2018-Jun-24 03:00N 43°25' E 004°51'4 8.1
2018-Jun-24 02:30N 43°23' E 004°56'5 9.5
2018-Jun-24 02:00N 43°19' E 004°59'4 7.7
2018-Jun-24 01:30N 43°15' E 005°00'4 7.5
2018-Jun-24 00:58N 43°12' E 005°02'3 7.5
2018-Jun-24 00:30N 43°09' E 004°60'5 9.6
2018-Jun-24 00:00N 43°05' E 004°55'5 9.6
2018-Jun-23 23:30N 43°01' E 004°51'12410.2
2018-Jun-23 11:17N 41°29' E 002°59'311.0
2018-Jun-23 10:59N 41°27' E 002°55'510.7
2018-Jun-23 10:29N 41°23' E 002°51'511.0
2018-Jun-23 10:00N 41°19' E 002°45'510.9
2018-Jun-23 09:30N 41°15' E 002°40'1410.9
2018-Jun-23 08:14N 41°05' E 002°27'311.0
2018-Jun-23 08:00N 41°04' E 002°25'13211.8
2018-Jun-22 20:45N 39°31' E 000°21'2511.8
2018-Jun-22 18:39N 39°26' W 000°10'211.5
2018-Jun-22 18:30N 39°26' W 000°12'5 9.4
2018-Jun-22 18:00N 39°26' W 000°18'1 1.7
2018-Jun-22 17:26N 39°26' W 000°20'0 0.0
2018-Jun-22 16:56N 39°26' W 000°20'0 0.0
2018-Jun-22 16:29N 39°26' W 000°20'0 0.0
2018-Jun-22 15:59N 39°26' W 000°20'0 0.0
2018-Jun-22 15:29N 39°26' W 000°20'0 0.0
2018-Jun-22 14:59N 39°26' W 000°20'0 0.0
2018-Jun-22 14:29N 39°26' W 000°20'0 0.0
2018-Jun-22 13:59N 39°26' W 000°20'0 0.0
2018-Jun-22 13:29N 39°26' W 000°20'0 0.0
2018-Jun-22 12:59N 39°26' W 000°20'0 0.0
2018-Jun-22 12:29N 39°26' W 000°20'0 0.0
2018-Jun-22 11:59N 39°26' W 000°20'0 0.0
2018-Jun-22 11:29N 39°26' W 000°20'0 0.0
2018-Jun-22 10:59N 39°26' W 000°20'0 0.0
2018-Jun-22 10:26N 39°26' W 000°20'0 0.0
2018-Jun-22 09:59N 39°26' W 000°20'0 0.0
2018-Jun-22 09:29N 39°26' W 000°20'0 0.0
2018-Jun-22 08:56N 39°26' W 000°20'0 0.0
2018-Jun-22 08:26N 39°26' W 000°20'0 0.0
2018-Jun-22 07:56N 39°26' W 000°20'0 0.0
2018-Jun-22 07:29N 39°26' W 000°20'0 0.0
2018-Jun-22 06:56N 39°26' W 000°20'0 0.0
2018-Jun-22 06:29N 39°26' W 000°20'0 0.0
2018-Jun-22 05:59N 39°26' W 000°20'0 0.0
2018-Jun-22 05:29N 39°26' W 000°20'0 0.0
2018-Jun-22 04:59N 39°26' W 000°20'0 0.0
2018-Jun-22 04:29N 39°26' W 000°20'0 0.0
2018-Jun-22 03:59N 39°26' W 000°20'0 0.0
2018-Jun-22 03:29N 39°26' W 000°20'0 0.0
2018-Jun-22 02:59N 39°26' W 000°20'0 0.0
2018-Jun-22 02:26N 39°26' W 000°20'0 0.0
2018-Jun-22 01:56N 39°26' W 000°20'0 0.0
2018-Jun-22 01:29N 39°26' W 000°20'0 0.0
2018-Jun-22 00:59N 39°26' W 000°20'0 0.0
2018-Jun-22 00:26N 39°26' W 000°20'0 0.0
2018-Jun-21 23:56N 39°26' W 000°20'0 0.0
2018-Jun-21 23:29N 39°26' W 000°20'0 0.0
2018-Jun-21 22:59N 39°26' W 000°20'0 0.0
2018-Jun-21 22:26N 39°26' W 000°20'0 0.0
2018-Jun-21 21:59N 39°26' W 000°20'0 0.0
2018-Jun-21 21:29N 39°26' W 000°20'0 0.0
2018-Jun-21 20:59N 39°26' W 000°20'0 0.0
2018-Jun-21 20:26N 39°26' W 000°20'0 0.0
2018-Jun-21 19:59N 39°26' W 000°20'0 0.0
2018-Jun-21 19:29N 39°26' W 000°20'0 0.0
2018-Jun-21 18:59N 39°26' W 000°20'0 0.0
2018-Jun-21 18:29N 39°26' W 000°20'0 0.0
2018-Jun-21 17:59N 39°26' W 000°20'0 0.0
2018-Jun-21 17:29N 39°26' W 000°20'0 0.0
2018-Jun-21 16:59N 39°26' W 000°20'0 0.0
2018-Jun-21 16:26N 39°26' W 000°20'0 0.0
2018-Jun-21 15:53N 39°26' W 000°20'0 0.0
2018-Jun-21 15:26N 39°26' W 000°20'0 0.0
2018-Jun-21 14:56N 39°26' W 000°20'0 0.0
2018-Jun-21 14:20N 39°26' W 000°20'0 0.0
2018-Jun-21 13:59N 39°26' W 000°20'0 0.0
2018-Jun-21 13:29N 39°26' W 000°20'0 0.0
2018-Jun-21 12:59N 39°26' W 000°20'0 0.0
2018-Jun-21 12:29N 39°26' W 000°20'0 0.0
2018-Jun-21 11:59N 39°26' W 000°20'0 0.0
2018-Jun-21 11:29N 39°26' W 000°20'0 0.0
2018-Jun-21 11:00N 39°26' W 000°20'0 0.0
2018-Jun-21 10:30N 39°26' W 000°20'2 4.3
2018-Jun-21 10:00N 39°25' W 000°17'5 9.2
2018-Jun-21 09:29N 39°25' W 000°11'6519.6
2018-Jun-21 06:08N 39°25' E 001°14'1120.4
2018-Jun-21 05:36N 39°25' E 001°28'520.4
2018-Jun-21 05:22N 39°25' E 001°34'720.5
2018-Jun-21 05:00N 39°24' E 001°44'1720.3
2018-Jun-21 04:11N 39°17' E 002°03'520.1
2018-Jun-21 03:58N 39°15' E 002°08'920.1
2018-Jun-21 03:30N 39°10' E 002°19'1020.3
2018-Jun-21 03:00N 39°05' E 002°30'1020.3
2018-Jun-21 02:30N 38°60' E 002°41'1020.1
2018-Jun-21 02:00N 38°57' E 002°54'1020.1
2018-Jun-21 01:30N 38°55' E 003°06'1020.1
2018-Jun-21 01:01N 38°53' E 003°19'1019.9
2018-Jun-21 00:29N 38°50' E 003°32'1119.9
2018-Jun-20 23:57N 38°48' E 003°45'920.0
2018-Jun-20 23:30N 38°47' E 003°56'1020.3
2018-Jun-20 23:00N 38°45' E 004°09'1020.2
2018-Jun-20 22:30N 38°43' E 004°22'3220.4
2018-Jun-20 20:55N 38°36' E 005°02'41519.4
2018-Jun-19 23:32N 36°38' E 013°25'118.9
2018-Jun-19 23:29N 36°37' E 013°26'1119.0
2018-Jun-19 22:54N 36°33' E 013°39'719.1
2018-Jun-19 22:30N 36°31' E 013°47'1019.3
2018-Jun-19 22:01N 36°27' E 013°58'1319.3
2018-Jun-19 21:21N 36°23' E 014°13'719.0
2018-Jun-19 21:00N 36°22' E 014°21'1019.2
2018-Jun-19 20:29N 36°20' E 014°33'1019.2
2018-Jun-19 19:59N 36°19' E 014°45'  
2018-Jun-15 22:09N 37°14' E 025°51'319.1
2018-Jun-15 22:00N 37°16' E 025°49'1019.9
2018-Jun-15 21:30N 37°26' E 025°48'1119.6
2018-Jun-15 20:58N 37°37' E 025°47'919.2
2018-Jun-15 20:30N 37°45' E 025°46'  
Track history (hours):
 
Tides and Currents Weather Stations Pressure Air Temp Water Temp Dewpoint Dewpoint Depression Visibility Wind Speed Wind Dir Waves Ship Positions

MSC Rochelle

Last reported at 2018-Jun-24 07:00 UTC. Time now 2018-Jun-24 07:15 UTC.
Position N 43°25' E 004°50'.

Length 293 m; draft 9.1 m.

Type: Ship (hazmat cat A). MMSI: 636016476.

Date/timePositionNaut miles runAvg speedWind from/ knotsBaromVisibWave heightAir tempDewpointWater temp
2018-Jun-24 07:00N 43°25' E 004°50'0 0.0
2018-Jun-24 06:30N 43°25' E 004°50'0 0.0
2018-Jun-24 06:00N 43°25' E 004°50'0 0.0
2018-Jun-24 05:30N 43°25' E 004°50'0 0.0
2018-Jun-24 05:00N 43°25' E 004°50'0 0.0
2018-Jun-24 04:30N 43°25' E 004°50'0 0.0
2018-Jun-24 04:00N 43°25' E 004°50'0 0.0
2018-Jun-24 03:30N 43°25' E 004°50'1 1.2
2018-Jun-24 03:00N 43°25' E 004°51'4 8.1
2018-Jun-24 02:30N 43°23' E 004°56'5 9.5
2018-Jun-24 02:00N 43°19' E 004°59'4 7.7
2018-Jun-24 01:30N 43°15' E 005°00'4 7.5
2018-Jun-24 00:58N 43°12' E 005°02'3 7.5
2018-Jun-24 00:30N 43°09' E 004°60'5 9.6
2018-Jun-24 00:00N 43°05' E 004°55'5 9.6
2018-Jun-23 23:30N 43°01' E 004°51'12410.2
2018-Jun-23 11:17N 41°29' E 002°59'311.0
2018-Jun-23 10:59N 41°27' E 002°55'510.7
2018-Jun-23 10:29N 41°23' E 002°51'511.0
2018-Jun-23 10:00N 41°19' E 002°45'510.9
2018-Jun-23 09:30N 41°15' E 002°40'1410.9
2018-Jun-23 08:14N 41°05' E 002°27'311.0
2018-Jun-23 08:00N 41°04' E 002°25'13211.8
2018-Jun-22 20:45N 39°31' E 000°21'2511.8
2018-Jun-22 18:39N 39°26' W 000°10'211.5
2018-Jun-22 18:30N 39°26' W 000°12'5 9.4
2018-Jun-22 18:00N 39°26' W 000°18'1 1.7
2018-Jun-22 17:26N 39°26' W 000°20'0 0.0
2018-Jun-22 16:56N 39°26' W 000°20'0 0.0
2018-Jun-22 16:29N 39°26' W 000°20'0 0.0
2018-Jun-22 15:59N 39°26' W 000°20'0 0.0
2018-Jun-22 15:29N 39°26' W 000°20'0 0.0
2018-Jun-22 14:59N 39°26' W 000°20'0 0.0
2018-Jun-22 14:29N 39°26' W 000°20'0 0.0
2018-Jun-22 13:59N 39°26' W 000°20'0 0.0
2018-Jun-22 13:29N 39°26' W 000°20'0 0.0
2018-Jun-22 12:59N 39°26' W 000°20'0 0.0
2018-Jun-22 12:29N 39°26' W 000°20'0 0.0
2018-Jun-22 11:59N 39°26' W 000°20'0 0.0
2018-Jun-22 11:29N 39°26' W 000°20'0 0.0
2018-Jun-22 10:59N 39°26' W 000°20'0 0.0
2018-Jun-22 10:26N 39°26' W 000°20'0 0.0
2018-Jun-22 09:59N 39°26' W 000°20'0 0.0
2018-Jun-22 09:29N 39°26' W 000°20'0 0.0
2018-Jun-22 08:56N 39°26' W 000°20'0 0.0
2018-Jun-22 08:26N 39°26' W 000°20'0 0.0
2018-Jun-22 07:56N 39°26' W 000°20'0 0.0
2018-Jun-22 07:29N 39°26' W 000°20'0 0.0
2018-Jun-22 06:56N 39°26' W 000°20'0 0.0
2018-Jun-22 06:29N 39°26' W 000°20'0 0.0
2018-Jun-22 05:59N 39°26' W 000°20'0 0.0
2018-Jun-22 05:29N 39°26' W 000°20'0 0.0
2018-Jun-22 04:59N 39°26' W 000°20'0 0.0
2018-Jun-22 04:29N 39°26' W 000°20'0 0.0
2018-Jun-22 03:59N 39°26' W 000°20'0 0.0
2018-Jun-22 03:29N 39°26' W 000°20'0 0.0
2018-Jun-22 02:59N 39°26' W 000°20'0 0.0
2018-Jun-22 02:26N 39°26' W 000°20'0 0.0
2018-Jun-22 01:56N 39°26' W 000°20'0 0.0
2018-Jun-22 01:29N 39°26' W 000°20'0 0.0
2018-Jun-22 00:59N 39°26' W 000°20'0 0.0
2018-Jun-22 00:26N 39°26' W 000°20'0 0.0
2018-Jun-21 23:56N 39°26' W 000°20'0 0.0
2018-Jun-21 23:29N 39°26' W 000°20'0 0.0
2018-Jun-21 22:59N 39°26' W 000°20'0 0.0
2018-Jun-21 22:26N 39°26' W 000°20'0 0.0
2018-Jun-21 21:59N 39°26' W 000°20'0 0.0
2018-Jun-21 21:29N 39°26' W 000°20'0 0.0
2018-Jun-21 20:59N 39°26' W 000°20'0 0.0
2018-Jun-21 20:26N 39°26' W 000°20'0 0.0
2018-Jun-21 19:59N 39°26' W 000°20'0 0.0
2018-Jun-21 19:29N 39°26' W 000°20'0 0.0
2018-Jun-21 18:59N 39°26' W 000°20'0 0.0
2018-Jun-21 18:29N 39°26' W 000°20'0 0.0
2018-Jun-21 17:59N 39°26' W 000°20'0 0.0
2018-Jun-21 17:29N 39°26' W 000°20'0 0.0
2018-Jun-21 16:59N 39°26' W 000°20'0 0.0
2018-Jun-21 16:26N 39°26' W 000°20'0 0.0
2018-Jun-21 15:53N 39°26' W 000°20'0 0.0
2018-Jun-21 15:26N 39°26' W 000°20'0 0.0
2018-Jun-21 14:56N 39°26' W 000°20'0 0.0
2018-Jun-21 14:20N 39°26' W 000°20'0 0.0
2018-Jun-21 13:59N 39°26' W 000°20'0 0.0
2018-Jun-21 13:29N 39°26' W 000°20'0 0.0
2018-Jun-21 12:59N 39°26' W 000°20'0 0.0
2018-Jun-21 12:29N 39°26' W 000°20'0 0.0
2018-Jun-21 11:59N 39°26' W 000°20'0 0.0
2018-Jun-21 11:29N 39°26' W 000°20'0 0.0
2018-Jun-21 11:00N 39°26' W 000°20'0 0.0
2018-Jun-21 10:30N 39°26' W 000°20'2 4.3
2018-Jun-21 10:00N 39°25' W 000°17'5 9.2
2018-Jun-21 09:29N 39°25' W 000°11'6519.6
2018-Jun-21 06:08N 39°25' E 001°14'1120.4
2018-Jun-21 05:36N 39°25' E 001°28'520.4
2018-Jun-21 05:22N 39°25' E 001°34'720.5
2018-Jun-21 05:00N 39°24' E 001°44'1720.3
2018-Jun-21 04:11N 39°17' E 002°03'520.1
2018-Jun-21 03:58N 39°15' E 002°08'920.1
2018-Jun-21 03:30N 39°10' E 002°19'1020.3
2018-Jun-21 03:00N 39°05' E 002°30'1020.3
2018-Jun-21 02:30N 38°60' E 002°41'1020.1
2018-Jun-21 02:00N 38°57' E 002°54'1020.1
2018-Jun-21 01:30N 38°55' E 003°06'1020.1
2018-Jun-21 01:01N 38°53' E 003°19'1019.9
2018-Jun-21 00:29N 38°50' E 003°32'1119.9
2018-Jun-20 23:57N 38°48' E 003°45'920.0
2018-Jun-20 23:30N 38°47' E 003°56'1020.3
2018-Jun-20 23:00N 38°45' E 004°09'1020.2
2018-Jun-20 22:30N 38°43' E 004°22'3220.4
2018-Jun-20 20:55N 38°36' E 005°02'41519.4
2018-Jun-19 23:32N 36°38' E 013°25'118.9
2018-Jun-19 23:29N 36°37' E 013°26'1119.0
2018-Jun-19 22:54N 36°33' E 013°39'719.1
2018-Jun-19 22:30N 36°31' E 013°47'1019.3
2018-Jun-19 22:01N 36°27' E 013°58'1319.3
2018-Jun-19 21:21N 36°23' E 014°13'719.0
2018-Jun-19 21:00N 36°22' E 014°21'1019.2
2018-Jun-19 20:29N 36°20' E 014°33'1019.2
2018-Jun-19 19:59N 36°19' E 014°45'  
2018-Jun-15 22:09N 37°14' E 025°51'319.1
2018-Jun-15 22:00N 37°16' E 025°49'1019.9
2018-Jun-15 21:30N 37°26' E 025°48'1119.6
2018-Jun-15 20:58N 37°37' E 025°47'919.2
2018-Jun-15 20:30N 37°45' E 025°46'  

Dump ship's entire track history